createdAt,value
2022-08-21T00:00:20.325Z,48.94
2022-08-21T00:05:43.517Z,48.85
2022-08-21T00:10:36.446Z,49.02
2022-08-21T00:15:36.333Z,48.99
2022-08-21T00:20:36.293Z,49.11
2022-08-21T00:25:36.233Z,49.28
2022-08-21T00:30:36.157Z,49.34
2022-08-21T00:35:36.085Z,49.57
2022-08-21T00:40:36.029Z,49.98
2022-08-21T00:45:35.982Z,49.95
2022-08-21T00:50:35.914Z,50.10
2022-08-21T00:55:35.836Z,50.43
2022-08-21T01:00:35.757Z,50.25
2022-08-21T01:05:35.698Z,50.46
2022-08-21T01:10:35.625Z,50.76
2022-08-21T01:15:35.594Z,50.61
2022-08-21T01:20:35.507Z,50.67
2022-08-21T01:25:35.427Z,50.79
2022-08-21T01:30:35.361Z,51.04
2022-08-21T01:35:35.329Z,51.22
2022-08-21T01:40:35.210Z,51.16
2022-08-21T01:45:35.183Z,51.50
2022-08-21T01:50:35.100Z,51.57
2022-08-21T01:55:35.031Z,51.50
2022-08-21T02:00:34.997Z,51.63
2022-08-21T02:05:34.913Z,51.85
2022-08-21T02:10:34.834Z,51.95
2022-08-21T02:15:34.774Z,52.27
2022-08-21T02:20:34.727Z,52.50
2022-08-21T02:25:34.646Z,52.30
2022-08-21T02:30:34.569Z,52.73
2022-08-21T02:35:34.510Z,52.66
2022-08-21T02:40:34.696Z,52.79
2022-08-21T02:45:34.365Z,53.16
2022-08-21T02:50:34.307Z,53.13
2022-08-21T02:55:34.235Z,53.46
2022-08-21T03:00:34.184Z,53.43
2022-08-21T03:05:34.103Z,53.33
2022-08-21T03:10:34.046Z,52.96
2022-08-21T03:15:33.983Z,53.33
2022-08-21T03:20:33.897Z,53.60
2022-08-21T03:25:40.489Z,53.43
2022-08-21T03:30:34.784Z,53.94
2022-08-21T03:35:33.703Z,53.40
2022-08-21T03:40:33.640Z,53.33
2022-08-21T03:45:33.565Z,53.84
2022-08-21T03:50:33.505Z,54.08
2022-08-21T03:55:33.435Z,53.91
2022-08-21T04:00:33.358Z,53.50
2022-08-21T04:05:33.323Z,53.97
2022-08-21T04:10:33.226Z,53.87
2022-08-21T04:15:33.183Z,53.70
2022-08-21T04:20:33.315Z,53.87
2022-08-21T04:25:33.081Z,54.04
2022-08-21T04:30:32.978Z,53.70
2022-08-21T04:35:32.914Z,53.80
2022-08-21T04:40:32.829Z,53.87
2022-08-21T04:45:32.767Z,53.87
2022-08-21T04:50:32.697Z,54.08
2022-08-21T04:55:32.649Z,54.36
2022-08-21T05:00:32.574Z,54.18
2022-08-21T05:05:32.513Z,54.22
2022-08-21T05:10:32.514Z,54.43
2022-08-21T05:15:32.383Z,54.22
2022-08-21T05:20:32.308Z,54.22
2022-08-21T05:25:32.247Z,54.04
2022-08-21T05:30:32.149Z,53.53
2022-08-21T05:35:32.099Z,53.40
2022-08-21T05:40:32.091Z,52.89
2022-08-21T05:45:42.229Z,53.33
2022-08-21T05:50:33.759Z,52.89
2022-08-21T05:55:33.965Z,52.60
2022-08-21T06:00:46.601Z,52.33
2022-08-21T06:05:39.498Z,51.82
2022-08-21T06:10:39.456Z,51.38
2022-08-21T06:15:39.369Z,51.07
2022-08-21T06:20:39.275Z,50.85
2022-08-21T06:25:39.206Z,50.76
2022-08-21T06:30:39.149Z,50.55
2022-08-21T06:35:41.575Z,50.31
2022-08-21T06:40:43.847Z,48.37
2022-08-21T06:45:39.996Z,46.41
2022-08-21T06:50:38.892Z,43.62
2022-08-21T06:55:38.836Z,40.33
2022-08-21T07:00:38.835Z,37.37
2022-08-21T07:05:38.698Z,34.70
2022-08-21T07:10:38.718Z,32.43
2022-08-21T07:15:38.566Z,30.47
2022-08-21T07:20:38.501Z,29.12
2022-08-21T07:25:38.465Z,28.06
2022-08-21T07:30:38.396Z,27.21
2022-08-21T07:35:39.287Z,26.64
2022-08-21T07:40:38.249Z,25.92
2022-08-21T07:45:38.177Z,25.53
2022-08-21T07:50:38.150Z,25.21
2022-08-21T07:55:38.034Z,24.81
2022-08-21T08:00:38.031Z,24.50
2022-08-21T08:05:37.919Z,24.08
2022-08-21T08:10:37.866Z,23.95
2022-08-21T08:15:37.834Z,23.63
2022-08-21T08:20:37.729Z,23.44
2022-08-21T08:25:38.467Z,23.15
2022-08-21T08:30:37.598Z,23.00
2022-08-21T08:35:39.053Z,22.85
2022-08-21T08:41:06.305Z,22.66
2022-08-21T08:45:59.243Z,22.54
2022-08-21T08:50:59.217Z,22.66
2022-08-21T08:55:59.167Z,22.54
2022-08-21T09:00:59.088Z,22.37
2022-08-21T09:05:58.995Z,22.18
2022-08-21T09:10:58.934Z,21.90
2022-08-21T09:15:58.942Z,21.63
2022-08-21T09:20:58.780Z,21.33
2022-08-21T09:25:58.736Z,21.03
2022-08-21T09:30:58.730Z,20.68
2022-08-21T09:35:59.597Z,20.32
2022-08-21T09:40:58.716Z,19.86
2022-08-21T09:45:58.550Z,19.73
2022-08-21T09:50:58.409Z,19.46
2022-08-21T09:55:58.862Z,19.12
2022-08-21T10:00:58.360Z,18.75
2022-08-21T10:05:58.267Z,18.50
2022-08-21T10:10:58.157Z,18.20
2022-08-21T10:15:58.104Z,17.91
2022-08-21T10:20:58.056Z,17.71
2022-08-21T10:26:13.532Z,17.40
2022-08-21T10:30:58.936Z,17.30
2022-08-21T10:35:57.850Z,17.22
2022-08-21T10:40:57.789Z,17.16
2022-08-21T10:45:58.982Z,17.12
2022-08-21T10:50:57.688Z,17.14
2022-08-21T10:55:57.604Z,17.22
2022-08-21T11:00:57.593Z,17.29
2022-08-21T11:05:57.476Z,17.36
2022-08-21T11:10:59.391Z,17.42
2022-08-21T11:15:57.353Z,17.78
2022-08-21T11:20:57.360Z,18.23
2022-08-21T11:25:59.092Z,18.53
2022-08-21T11:30:57.190Z,18.92
2022-08-21T11:35:57.112Z,19.16
2022-08-21T11:40:57.041Z,19.35
2022-08-21T11:45:56.988Z,19.71
2022-08-21T11:50:56.905Z,20.26
2022-08-21T11:55:56.879Z,20.48
2022-08-21T12:00:57.082Z,20.82
2022-08-21T12:05:56.720Z,21.37
2022-08-21T12:10:56.659Z,21.97
2022-08-21T12:15:56.596Z,22.13
2022-08-21T12:20:56.527Z,22.23
2022-08-21T12:25:56.466Z,22.13
2022-08-21T12:30:58.191Z,22.30
2022-08-21T12:35:56.331Z,22.68
2022-08-21T12:40:56.278Z,22.70
2022-08-21T12:45:56.219Z,23.10
2022-08-21T12:50:56.175Z,23.15
2022-08-21T12:55:56.108Z,23.31
2022-08-21T13:00:56.062Z,23.23
2022-08-21T13:05:56.026Z,23.10
2022-08-21T13:10:55.916Z,23.08
2022-08-21T13:15:55.839Z,23.10
2022-08-21T13:20:55.808Z,23.20
2022-08-21T13:25:55.768Z,23.39
2022-08-21T13:30:55.670Z,23.78
2022-08-21T13:35:55.580Z,23.98
2022-08-21T13:40:55.534Z,24.45
2022-08-21T13:45:55.443Z,24.74
2022-08-21T13:50:55.517Z,25.30
2022-08-21T13:56:00.405Z,25.49
2022-08-21T14:00:55.260Z,25.73
2022-08-21T14:05:55.188Z,26.08
2022-08-21T14:10:57.579Z,26.58
2022-08-21T14:15:55.052Z,27.14
2022-08-21T14:20:55.009Z,27.44
2022-08-21T14:25:54.945Z,27.87
2022-08-21T14:30:54.871Z,28.40
2022-08-21T14:35:54.792Z,28.63
2022-08-21T14:40:54.740Z,28.81
2022-08-21T14:45:54.674Z,29.06
2022-08-21T14:50:59.789Z,29.18
2022-08-21T14:55:55.639Z,29.10
2022-08-21T15:00:54.490Z,29.16
2022-08-21T15:05:54.418Z,29.16
2022-08-21T15:11:11.138Z,29.08
2022-08-21T15:15:55.315Z,29.28
2022-08-21T15:20:54.422Z,29.39
2022-08-21T15:25:54.160Z,29.66
2022-08-21T15:30:54.104Z,29.80
2022-08-21T15:35:54.047Z,30.08
2022-08-21T15:40:54.104Z,30.27
2022-08-21T15:45:53.955Z,30.51
2022-08-21T15:50:53.858Z,30.67
2022-08-21T15:55:53.858Z,30.82
2022-08-21T16:00:53.726Z,31.03
2022-08-21T16:05:53.719Z,31.07
2022-08-21T16:10:53.632Z,31.14
2022-08-21T16:15:53.674Z,31.19
2022-08-21T16:20:53.453Z,31.24
2022-08-21T16:25:53.468Z,31.26
2022-08-21T16:30:53.380Z,31.42
2022-08-21T16:35:53.288Z,31.44
2022-08-21T16:40:53.205Z,31.63
2022-08-21T16:45:53.123Z,31.75
2022-08-21T16:50:53.102Z,31.90
2022-08-21T16:55:53.142Z,32.04
2022-08-21T17:00:53.042Z,32.28
2022-08-21T17:05:52.856Z,32.38
2022-08-21T17:10:52.818Z,32.51
2022-08-21T17:15:52.727Z,32.94
2022-08-21T17:20:52.679Z,33.07
2022-08-21T17:25:52.627Z,33.36
2022-08-21T17:30:52.531Z,33.65
2022-08-21T17:35:52.462Z,33.84
2022-08-21T17:40:52.403Z,34.28
2022-08-21T17:45:52.330Z,34.61
2022-08-21T17:50:52.314Z,34.70
2022-08-21T17:56:01.090Z,35.02
2022-08-21T18:00:54.072Z,35.16
2022-08-21T18:05:53.953Z,35.34
2022-08-21T18:10:53.959Z,35.79
2022-08-21T18:15:53.823Z,36.37
2022-08-21T18:20:53.799Z,36.88
2022-08-21T18:25:53.712Z,36.98
2022-08-21T18:30:53.665Z,37.24
2022-08-21T18:35:53.577Z,37.77
2022-08-21T18:40:55.994Z,38.11
2022-08-21T18:45:53.435Z,38.35
2022-08-21T18:50:53.394Z,38.49
2022-08-21T18:55:53.303Z,38.78
2022-08-21T19:00:53.274Z,39.10
2022-08-21T19:05:53.156Z,39.32
2022-08-21T19:10:53.104Z,39.58
2022-08-21T19:15:53.114Z,39.58
2022-08-21T19:20:52.950Z,39.76
2022-08-21T19:25:53.168Z,39.99
2022-08-21T19:30:52.844Z,40.41
2022-08-21T19:35:52.877Z,40.57
2022-08-21T19:40:52.705Z,40.57
2022-08-21T19:45:52.641Z,40.88
2022-08-21T19:50:52.556Z,41.04
2022-08-21T19:55:52.487Z,41.20
2022-08-21T20:00:52.503Z,41.52
2022-08-21T20:05:54.073Z,41.65
2022-08-21T20:10:52.294Z,41.60
2022-08-21T20:15:52.207Z,42.06
2022-08-21T20:20:52.528Z,42.36
2022-08-21T20:25:52.123Z,42.57
2022-08-21T20:30:52.050Z,42.48
2022-08-21T20:35:52.046Z,42.44
2022-08-21T20:40:51.957Z,42.61
2022-08-21T20:45:51.878Z,42.70
2022-08-21T20:50:51.761Z,43.05
2022-08-21T20:55:51.690Z,42.92
2022-08-21T21:00:51.908Z,42.96
2022-08-21T21:05:51.575Z,43.13
2022-08-21T21:10:51.546Z,43.22
2022-08-21T21:15:51.588Z,43.09
2022-08-21T21:20:51.381Z,43.62
2022-08-21T21:25:53.901Z,43.58
2022-08-21T21:30:55.610Z,43.58
2022-08-21T21:35:52.204Z,43.76
2022-08-21T21:40:51.140Z,43.81
2022-08-21T21:45:51.036Z,43.90
2022-08-21T21:50:50.995Z,44.03
2022-08-21T21:55:50.906Z,43.94
2022-08-21T22:00:52.189Z,43.90
2022-08-21T22:05:50.777Z,44.03
2022-08-21T22:10:50.705Z,44.26
2022-08-21T22:15:50.638Z,44.17
2022-08-21T22:20:50.564Z,44.13
2022-08-21T22:25:50.512Z,44.59
2022-08-21T22:31:18.072Z,44.22
2022-08-21T22:36:26.493Z,44.03
2022-08-21T22:41:18.947Z,44.40
2022-08-21T22:46:18.859Z,44.31
2022-08-21T22:51:18.800Z,44.45
2022-08-21T22:56:18.705Z,44.55
2022-08-21T23:01:18.628Z,44.55
2022-08-21T23:06:18.568Z,44.69
2022-08-21T23:11:19.205Z,44.92
2022-08-21T23:16:18.431Z,45.12
2022-08-21T23:21:18.429Z,45.17
2022-08-21T23:26:18.315Z,45.17
2022-08-21T23:31:18.243Z,45.26
2022-08-21T23:36:18.177Z,45.26
2022-08-21T23:41:20.037Z,45.17
2022-08-21T23:46:19.072Z,44.92
2022-08-21T23:51:18.992Z,45.12
2022-08-21T23:56:17.923Z,45.21
